Impacts METAR Board INFO
IDs:

KIAD - Washington/Dulles In, VA, US

Updated at: 0623 UTC 14 Dec 2017
Potential Impact None Slight Moderate High
Time13/18Z 13/19Z 13/20Z 13/21Z 13/22Z 13/23Z 14/00Z 14/01Z 14/02Z 14/03Z 14/04Z 14/05Z 14/06Z
VIS10 10 10 10 10 10 10 10 10 10 10 10 10
CIG-- -- -- 55 50 55 35 49 100 60 55 120 110
CoverFEWSCTFEWBKNBKNOVCOVCOVCOVCOVCOVCBKNBKN
FltCatVFRVFRVFRVFRVFRVFRVFRVFRVFRVFRVFRVFRVFR
WX--------------------------
WDir270260250240190170170150170180160170180
WSpd10 8 6 7 8 7 7 7 8 5 8 8 8
WGst17 14 -- -- -- -- -- -- -- -- -- -- --
Raw hourly METARs
KIAD 131752Z 27010G17KT 240V320 10SM FEW055 FEW250 00/M13 A2979 RMK AO2 SLP091 T00001133 10000 21067 58024
KIAD 131852Z 26008G14KT 10SM FEW055 FEW180 SCT250 00/M13 A2978 RMK AO2 SLP088 T00001133
KIAD 131952Z 25006KT 10SM FEW060 FEW250 01/M14 A2976 RMK AO2 SLP080 T00061144
KIAD 132052Z 24007KT 10SM BKN055 BKN120 01/M14 A2975 RMK AO2 SLP078 T00061139 56014
KIAD 132152Z 19008KT 10SM BKN050 BKN120 00/M13 A2974 RMK AO2 SLP074 T00001133
KIAD 132252Z 17007KT 10SM BKN055 OVC100 00/M13 A2973 RMK AO2 SLP069 T00001133
KIAD 132352Z 17007KT 10SM BKN035 OVC070 00/M13 A2970 RMK AO2 SLP061 T00001133 10011 21011 58017
KIAD 140052Z 15007KT 10SM BKN049 OVC065 01/M13 A2966 RMK AO2 SLP047 T00061128
KIAD 140152Z 17008KT 10SM FEW060 BKN100 OVC110 01/M12 A2963 RMK AO2 SLP035 T00061122
KIAD 140252Z 18005KT 10SM BKN060 OVC100 01/M12 A2964 RMK AO2 SLP039 T00061117 55020
KIAD 140352Z 16008KT 10SM BKN055 OVC085 01/M11 A2960 RMK AO2 SLP024 T00111111
KIAD 140452Z 17008KT 10SM SCT080 BKN120 01/M11 A2957 RMK AO2 SLP014 T00061111 400111067
KIAD 140552Z 18008KT 10SM FEW080 BKN110 01/M11 A2954 RMK AO2 SLP004 T00061106 10011 20000 56035